createdAt,value
2018-03-26T00:02:12.251Z,5.40
2018-03-26T00:04:38.811Z,10.55
2018-03-26T00:07:05.478Z,6.10
2018-03-26T00:09:32.104Z,5.10
2018-03-26T00:11:58.685Z,5.12
2018-03-26T00:14:29.355Z,4.97
2018-03-26T00:16:56.034Z,5.72
2018-03-26T00:19:22.659Z,5.35
2018-03-26T00:21:49.251Z,5.22
2018-03-26T00:24:15.823Z,4.45
2018-03-26T00:26:42.394Z,5.70
2018-03-26T00:29:08.945Z,5.00
2018-03-26T00:31:36.264Z,5.60
2018-03-26T00:34:02.842Z,8.60
2018-03-26T00:36:29.446Z,6.03
2018-03-26T00:38:56.020Z,6.87
2018-03-26T00:41:22.656Z,7.87
2018-03-26T00:43:49.249Z,4.85
2018-03-26T00:46:15.828Z,5.40
2018-03-26T00:48:42.399Z,5.63
2018-03-26T00:51:08.944Z,5.35
2018-03-26T00:53:42.794Z,4.62
2018-03-26T00:56:09.302Z,6.65
2018-03-26T00:58:35.840Z,6.90
2018-03-26T01:01:02.522Z,15.75
2018-03-26T01:03:29.806Z,15.43
2018-03-26T01:05:56.382Z,14.95
2018-03-26T01:08:22.815Z,15.50
2018-03-26T01:10:49.254Z,10.70
2018-03-26T01:13:15.758Z,6.27
2018-03-26T01:15:42.937Z,7.35
2018-03-26T01:18:09.813Z,12.40
2018-03-26T01:20:37.767Z,18.10
2018-03-26T01:23:04.237Z,18.75
2018-03-26T01:25:33.520Z,13.98
2018-03-26T01:28:00.714Z,18.20
2018-03-26T01:30:27.187Z,17.23
2018-03-26T01:32:53.625Z,19.80
2018-03-26T01:35:20.082Z,13.37
2018-03-26T01:37:46.631Z,9.93
2018-03-26T01:40:13.106Z,5.87
2018-03-26T01:42:55.910Z,5.43
2018-03-26T01:45:23.170Z,7.30
2018-03-26T01:47:54.556Z,5.55
2018-03-26T01:50:21.060Z,5.07
2018-03-26T01:52:47.550Z,7.00
2018-03-26T01:55:14.053Z,5.83
2018-03-26T01:57:46.502Z,7.00
2018-03-26T02:00:12.914Z,6.45
2018-03-26T02:02:51.309Z,4.57
2018-03-26T02:05:17.758Z,4.80
2018-03-26T02:07:44.202Z,19.48
2018-03-26T02:10:17.872Z,9.40
2018-03-26T02:12:44.409Z,5.65
2018-03-26T02:15:10.897Z,4.60
2018-03-26T02:17:37.329Z,4.30
2018-03-26T02:20:07.677Z,4.73
2018-03-26T02:22:34.125Z,7.45
2018-03-26T02:25:08.668Z,4.03
2018-03-26T02:27:36.636Z,7.75
2018-03-26T02:30:03.156Z,4.37
2018-03-26T02:32:29.607Z,8.87
2018-03-26T02:34:56.047Z,7.20
2018-03-26T02:37:22.492Z,5.37
2018-03-26T02:39:49.676Z,8.90
2018-03-26T02:42:16.155Z,8.18
2018-03-26T02:44:42.594Z,11.65
2018-03-26T02:47:09.036Z,12.80
2018-03-26T02:49:35.518Z,12.80
2018-03-26T02:52:02.006Z,18.73
2018-03-26T02:54:32.340Z,20.62
2018-03-26T02:56:58.811Z,12.87
2018-03-26T02:59:25.352Z,8.07
2018-03-26T03:02:16.410Z,6.73
2018-03-26T03:04:42.842Z,8.10
2018-03-26T03:07:09.293Z,5.27
2018-03-26T03:09:35.729Z,7.50
2018-03-26T03:12:06.133Z,6.80
2018-03-26T03:14:32.602Z,7.10
2018-03-26T03:17:02.885Z,12.77
2018-03-26T03:19:29.310Z,16.45
2018-03-26T03:21:55.730Z,8.27
2018-03-26T03:24:29.170Z,6.23
2018-03-26T03:26:55.601Z,5.80
2018-03-26T03:29:26.911Z,5.43
2018-03-26T03:31:53.397Z,5.27
2018-03-26T03:34:29.064Z,7.50
2018-03-26T03:36:56.280Z,17.27
2018-03-26T03:39:23.716Z,14.60
2018-03-26T03:41:50.140Z,16.00
2018-03-26T03:44:16.584Z,12.15
2018-03-26T03:46:52.178Z,7.85
2018-03-26T03:49:18.632Z,18.90
2018-03-26T03:51:48.336Z,21.45
2018-03-26T03:54:15.512Z,8.45
2018-03-26T03:56:42.976Z,14.60
2018-03-26T03:59:09.425Z,16.62
2018-03-26T04:01:35.846Z,19.48
2018-03-26T04:04:02.429Z,15.40
2018-03-26T04:06:28.853Z,17.03
2018-03-26T04:08:55.298Z,17.87
2018-03-26T04:11:21.722Z,14.60
2018-03-26T04:13:48.206Z,17.62
2018-03-26T04:16:14.652Z,11.65
2018-03-26T04:18:41.101Z,18.87
2018-03-26T04:21:07.602Z,13.95
2018-03-26T04:23:34.821Z,16.60
2018-03-26T04:26:01.265Z,14.25
2018-03-26T04:28:29.199Z,10.57
2018-03-26T04:30:55.652Z,8.80
2018-03-26T04:33:22.110Z,14.27
2018-03-26T04:35:49.284Z,22.00
2018-03-26T04:38:16.542Z,16.35
2018-03-26T04:40:42.960Z,11.43
2018-03-26T04:43:10.150Z,13.10
2018-03-26T04:45:36.574Z,10.80
2018-03-26T04:48:03.029Z,17.50
2018-03-26T04:50:29.476Z,18.25
2018-03-26T04:52:57.482Z,12.82
2018-03-26T04:55:24.670Z,16.95
2018-03-26T04:57:51.116Z,13.55
2018-03-26T05:00:17.536Z,16.65
2018-03-26T05:02:43.991Z,15.83
2018-03-26T05:05:10.397Z,16.10
2018-03-26T05:07:36.840Z,23.40
2018-03-26T05:10:03.363Z,20.08
2018-03-26T05:12:29.830Z,16.83
2018-03-26T05:14:56.274Z,15.90
2018-03-26T05:17:22.726Z,19.42
2018-03-26T05:19:49.177Z,18.70
2018-03-26T05:22:16.361Z,13.80
2018-03-26T05:24:42.797Z,15.30
2018-03-26T05:27:09.267Z,19.95
2018-03-26T05:29:35.703Z,16.67
2018-03-26T05:32:02.137Z,20.83
2018-03-26T05:34:29.369Z,17.03
2018-03-26T05:36:55.798Z,20.92
2018-03-26T05:39:22.231Z,20.65
2018-03-26T05:41:48.657Z,18.15
2018-03-26T05:44:15.243Z,16.23
2018-03-26T05:46:41.696Z,20.03
2018-03-26T05:49:08.148Z,17.47
2018-03-26T05:51:35.313Z,18.07
2018-03-26T05:54:01.774Z,16.97
2018-03-26T05:56:28.205Z,14.18
2018-03-26T05:58:54.646Z,8.10
2018-03-26T06:01:21.102Z,9.77
2018-03-26T06:03:47.568Z,19.07
2018-03-26T06:06:14.069Z,15.30
2018-03-26T06:08:40.520Z,17.43
2018-03-26T06:11:06.985Z,17.17
2018-03-26T06:13:33.466Z,13.47
2018-03-26T06:16:00.659Z,20.50
2018-03-26T06:18:27.194Z,14.23
2018-03-26T06:20:53.669Z,15.93
2018-03-26T06:23:20.193Z,20.83
2018-03-26T06:25:46.670Z,19.80
2018-03-26T06:28:13.890Z,13.43
2018-03-26T06:30:40.430Z,13.80
2018-03-26T06:33:06.875Z,17.67
2018-03-26T06:35:33.345Z,18.93
2018-03-26T06:38:01.399Z,19.40
2018-03-26T06:40:27.890Z,12.43
2018-03-26T06:42:54.331Z,18.87
2018-03-26T06:45:20.775Z,24.00
2018-03-26T06:47:47.195Z,19.37
2018-03-26T06:50:13.718Z,17.27
2018-03-26T06:52:40.146Z,13.30
2018-03-26T06:55:06.633Z,15.20
2018-03-26T06:57:33.057Z,17.43
2018-03-26T06:59:59.497Z,13.90
2018-03-26T07:02:25.949Z,19.60
2018-03-26T07:04:53.889Z,12.73
2018-03-26T07:07:20.326Z,15.97
2018-03-26T07:09:46.810Z,15.00
2018-03-26T07:12:13.253Z,14.57
2018-03-26T07:14:39.754Z,14.37
2018-03-26T07:17:06.194Z,16.40
2018-03-26T07:19:33.456Z,15.93
2018-03-26T07:21:59.879Z,19.47
2018-03-26T07:24:26.337Z,20.83
2018-03-26T07:26:52.758Z,21.87
2018-03-26T07:29:19.209Z,21.17
2018-03-26T07:31:45.689Z,15.93
2018-03-26T07:34:12.141Z,17.27
2018-03-26T07:36:38.561Z,14.17
2018-03-26T07:39:09.853Z,21.33
2018-03-26T07:41:37.020Z,17.20
2018-03-26T07:44:03.480Z,14.33
2018-03-26T07:46:29.899Z,15.87
2018-03-26T07:48:56.353Z,15.40
2018-03-26T07:51:22.792Z,16.67
2018-03-26T07:53:49.281Z,15.73
2018-03-26T07:56:16.459Z,16.77
2018-03-26T07:58:42.986Z,12.03
2018-03-26T08:01:09.457Z,15.33
2018-03-26T08:03:35.921Z,16.23
2018-03-26T08:06:02.387Z,16.90
2018-03-26T08:08:28.881Z,12.27
2018-03-26T08:10:56.065Z,20.20
2018-03-26T08:13:22.548Z,17.23
2018-03-26T08:15:48.993Z,15.50
2018-03-26T08:18:15.465Z,20.07
2018-03-26T08:20:41.902Z,14.77
2018-03-26T08:23:09.097Z,18.50
2018-03-26T08:25:35.553Z,15.23
2018-03-26T08:28:02.030Z,19.80
2018-03-26T08:30:28.488Z,19.33
2018-03-26T08:32:54.924Z,22.63
2018-03-26T08:35:25.285Z,19.40
2018-03-26T08:37:51.713Z,23.60
2018-03-26T08:40:18.186Z,19.13
2018-03-26T08:42:45.371Z,13.80
2018-03-26T08:45:11.817Z,16.93
2018-03-26T08:47:38.258Z,10.57
2018-03-26T08:50:04.909Z,11.77
2018-03-26T08:52:31.342Z,17.83
2018-03-26T08:54:57.784Z,18.90
2018-03-26T08:57:24.206Z,16.67
2018-03-26T08:59:51.437Z,19.00
2018-03-26T09:02:17.903Z,18.20
2018-03-26T09:04:44.352Z,11.27
2018-03-26T09:07:10.820Z,19.27
2018-03-26T09:09:37.247Z,14.77
2018-03-26T09:12:04.493Z,14.17
2018-03-26T09:14:31.041Z,10.20
2018-03-26T09:16:57.485Z,16.60
2018-03-26T09:19:23.958Z,16.93
2018-03-26T09:21:50.441Z,16.63
2018-03-26T09:24:16.934Z,16.57
2018-03-26T09:26:43.440Z,16.13
2018-03-26T09:29:09.869Z,17.70
2018-03-26T09:31:37.079Z,20.10
2018-03-26T09:34:03.526Z,17.77
2018-03-26T09:36:30.739Z,15.10
2018-03-26T09:38:57.155Z,20.57
2018-03-26T09:41:23.618Z,15.20
2018-03-26T09:43:50.077Z,14.83
2018-03-26T09:46:17.289Z,18.30
2018-03-26T09:48:43.703Z,15.00
2018-03-26T09:51:10.197Z,13.83
2018-03-26T09:53:36.652Z,17.17
2018-03-26T09:56:03.129Z,16.37
2018-03-26T09:58:30.301Z,17.70
2018-03-26T10:01:01.434Z,13.57
2018-03-26T10:03:27.893Z,15.23
2018-03-26T10:05:55.111Z,15.80
2018-03-26T10:08:21.528Z,18.97
2018-03-26T10:10:47.977Z,20.07
2018-03-26T10:13:14.402Z,21.47
2018-03-26T10:15:40.914Z,18.43
2018-03-26T10:18:07.345Z,17.53
2018-03-26T10:20:33.818Z,19.43
2018-03-26T10:23:00.238Z,21.37
2018-03-26T10:25:27.540Z,16.53
2018-03-26T10:27:54.717Z,18.13
2018-03-26T10:30:21.200Z,15.30
2018-03-26T10:32:47.651Z,16.03
2018-03-26T10:35:14.106Z,16.87
2018-03-26T10:37:41.289Z,14.43
2018-03-26T10:40:07.801Z,18.27
2018-03-26T10:42:34.236Z,15.50
2018-03-26T10:45:01.390Z,20.47
2018-03-26T10:47:27.848Z,16.77
2018-03-26T10:49:54.313Z,20.73
2018-03-26T10:52:20.749Z,20.40
2018-03-26T10:54:48.181Z,15.83
2018-03-26T10:57:14.635Z,14.07
2018-03-26T10:59:41.057Z,17.67
2018-03-26T11:02:07.522Z,18.37
2018-03-26T11:04:34.715Z,13.27
2018-03-26T11:07:01.150Z,15.57
2018-03-26T11:09:27.628Z,17.83
2018-03-26T11:11:54.417Z,14.87
2018-03-26T11:14:20.858Z,19.30
2018-03-26T11:16:47.306Z,18.07
2018-03-26T11:19:13.752Z,21.43
2018-03-26T11:21:40.225Z,20.43
2018-03-26T11:24:06.647Z,19.20
2018-03-26T11:26:33.109Z,17.53
2018-03-26T11:28:59.565Z,18.43
2018-03-26T11:31:26.733Z,15.47
2018-03-26T11:33:53.161Z,18.23
2018-03-26T11:36:19.689Z,19.20
2018-03-26T11:38:46.057Z,20.40
2018-03-26T11:41:12.491Z,23.40
2018-03-26T11:43:38.914Z,15.67
2018-03-26T11:46:05.367Z,19.37
2018-03-26T11:48:31.785Z,15.13
2018-03-26T11:50:58.243Z,20.50
2018-03-26T11:53:24.772Z,18.67
2018-03-26T11:55:57.862Z,23.13
2018-03-26T11:58:25.290Z,18.67
2018-03-26T12:00:51.791Z,21.67
2018-03-26T12:03:18.991Z,19.37
2018-03-26T12:05:45.459Z,24.27
2018-03-26T12:08:11.894Z,17.57
2018-03-26T12:10:38.349Z,21.77
2018-03-26T12:13:04.864Z,21.00
2018-03-26T12:15:31.290Z,25.97
2018-03-26T12:17:57.716Z,23.67
2018-03-26T12:20:36.472Z,21.33
2018-03-26T12:23:16.060Z,24.60
2018-03-26T12:25:42.569Z,24.57
2018-03-26T12:28:21.289Z,21.07
2018-03-26T12:30:47.749Z,24.07
2018-03-26T12:33:14.224Z,18.73
2018-03-26T12:35:50.956Z,17.10
2018-03-26T12:38:17.448Z,26.70
2018-03-26T12:40:57.018Z,16.10
2018-03-26T12:43:23.453Z,21.50
2018-03-26T12:46:02.262Z,23.27
2018-03-26T12:48:29.462Z,16.80
2018-03-26T12:51:08.101Z,20.43
2018-03-26T12:53:34.541Z,20.37
2018-03-26T12:56:00.975Z,21.33
2018-03-26T12:58:37.523Z,23.97
2018-03-26T13:01:16.385Z,23.87
2018-03-26T13:03:42.863Z,24.83
2018-03-26T13:06:09.354Z,20.70
2018-03-26T13:08:35.801Z,19.40
2018-03-26T13:11:02.286Z,22.30
2018-03-26T13:13:28.730Z,20.13
2018-03-26T13:15:55.201Z,20.57
2018-03-26T13:18:21.677Z,20.57
2018-03-26T13:20:48.151Z,21.57
2018-03-26T13:23:15.359Z,19.03
2018-03-26T13:25:41.864Z,19.60
2018-03-26T13:28:08.362Z,20.73
2018-03-26T13:30:34.821Z,16.47
2018-03-26T13:33:01.261Z,25.10
2018-03-26T13:35:27.697Z,19.63
2018-03-26T13:37:54.174Z,20.03
2018-03-26T13:40:20.652Z,19.43
2018-03-26T13:42:47.057Z,21.10
2018-03-26T13:45:13.500Z,23.00
2018-03-26T13:47:39.987Z,22.00
2018-03-26T13:50:07.327Z,25.30
2018-03-26T13:52:33.749Z,19.17
2018-03-26T13:55:00.206Z,21.33
2018-03-26T13:57:27.441Z,15.80
2018-03-26T13:59:54.678Z,21.17
2018-03-26T14:02:21.143Z,20.10
2018-03-26T14:04:48.373Z,22.90
2018-03-26T14:07:14.791Z,17.60
2018-03-26T14:09:53.438Z,23.40
2018-03-26T14:12:32.906Z,22.77
2018-03-26T14:15:11.542Z,13.53
2018-03-26T14:17:49.245Z,21.93
2018-03-26T14:20:15.773Z,20.93
2018-03-26T14:22:42.982Z,20.33
2018-03-26T14:25:09.434Z,19.07
2018-03-26T14:27:36.673Z,24.10
2018-03-26T14:30:03.905Z,14.90
2018-03-26T14:32:30.405Z,13.90
2018-03-26T14:38:12.788Z,19.03
2018-03-26T14:40:39.236Z,21.23
2018-03-26T14:43:06.521Z,24.23
2018-03-26T14:45:33.032Z,20.33
2018-03-26T14:48:00.289Z,20.80
2018-03-26T14:50:27.481Z,24.67
2018-03-26T14:52:53.937Z,16.87
2018-03-26T14:55:20.384Z,13.43
2018-03-26T14:57:46.834Z,26.80
2018-03-26T15:00:14.029Z,28.90
2018-03-26T15:02:40.501Z,22.60
2018-03-26T15:05:06.965Z,28.27
2018-03-26T15:07:34.149Z,24.37
2018-03-26T15:10:00.617Z,30.23
2018-03-26T15:12:27.073Z,25.37
2018-03-26T15:14:54.269Z,26.27
2018-03-26T15:17:20.733Z,29.77
2018-03-26T15:19:47.225Z,24.73
2018-03-26T15:22:13.710Z,24.93
2018-03-26T15:24:40.193Z,19.27
2018-03-26T15:27:06.640Z,26.60
2018-03-26T15:29:35.123Z,26.27
2018-03-26T15:32:02.653Z,22.70
2018-03-26T15:34:29.050Z,21.40
2018-03-26T15:36:55.522Z,19.60
2018-03-26T15:39:22.741Z,22.47
2018-03-26T15:41:49.273Z,28.50
2018-03-26T15:44:16.566Z,24.53
2018-03-26T15:46:43.772Z,21.90
2018-03-26T15:49:10.215Z,27.37
2018-03-26T15:51:36.682Z,18.43
2018-03-26T15:54:03.912Z,16.23
2018-03-26T15:56:30.348Z,18.03
2018-03-26T15:58:56.827Z,13.27
2018-03-26T16:01:23.277Z,26.70
2018-03-26T16:03:49.761Z,15.17
2018-03-26T16:06:16.214Z,24.20
2018-03-26T16:08:43.417Z,12.03
2018-03-26T16:11:09.872Z,14.43
2018-03-26T16:13:36.397Z,12.07
2018-03-26T16:16:02.885Z,12.90
2018-03-26T16:18:29.365Z,16.03
2018-03-26T16:20:55.815Z,11.90
2018-03-26T16:23:22.270Z,14.07
2018-03-26T16:25:49.456Z,10.90
2018-03-26T16:28:15.923Z,15.03
2018-03-26T16:30:42.353Z,10.90
2018-03-26T16:33:08.813Z,12.70
2018-03-26T16:35:35.242Z,10.97
2018-03-26T16:38:01.728Z,24.17
2018-03-26T16:40:32.039Z,17.73
2018-03-26T16:43:03.537Z,19.60
2018-03-26T16:45:30.004Z,15.57
2018-03-26T16:47:56.457Z,9.83
2018-03-26T16:50:22.918Z,11.67
2018-03-26T16:52:49.390Z,13.13
2018-03-26T16:55:15.872Z,13.73
2018-03-26T16:57:42.359Z,15.17
2018-03-26T17:00:08.794Z,13.37
2018-03-26T17:02:35.428Z,20.97
2018-03-26T17:05:01.858Z,11.00
2018-03-26T17:07:28.307Z,13.30
2018-03-26T17:09:55.514Z,20.90
2018-03-26T17:12:21.986Z,17.43
2018-03-26T17:14:48.425Z,16.57
2018-03-26T17:17:14.889Z,13.63
2018-03-26T17:19:41.359Z,19.50
2018-03-26T17:22:07.937Z,13.43
2018-03-26T17:24:34.365Z,17.20
2018-03-26T17:27:00.868Z,12.57
2018-03-26T17:29:27.296Z,14.87
2018-03-26T17:31:53.721Z,13.73
2018-03-26T17:34:20.158Z,12.07
2018-03-26T17:36:46.625Z,11.17
2018-03-26T17:39:13.074Z,15.53
2018-03-26T17:41:39.532Z,11.93
2018-03-26T17:44:06.780Z,14.50
2018-03-26T17:46:33.973Z,25.17
2018-03-26T17:49:00.604Z,18.57
2018-03-26T17:51:27.114Z,12.80
2018-03-26T17:53:54.389Z,13.17
2018-03-26T17:56:20.792Z,13.83
2018-03-26T17:58:47.265Z,13.53
2018-03-26T18:01:13.733Z,10.63
2018-03-26T18:03:40.202Z,12.40
2018-03-26T18:06:07.420Z,14.57
2018-03-26T18:08:33.846Z,18.27
2018-03-26T18:11:00.270Z,11.73
2018-03-26T18:13:26.745Z,10.30
2018-03-26T18:15:53.169Z,14.97
2018-03-26T18:18:24.370Z,13.53
2018-03-26T18:20:50.994Z,13.17
2018-03-26T18:23:17.461Z,13.40
2018-03-26T18:25:43.902Z,10.83
2018-03-26T18:28:10.415Z,8.80
2018-03-26T18:30:36.824Z,12.37
2018-03-26T18:33:04.002Z,8.67
2018-03-26T18:35:31.354Z,11.43
2018-03-26T18:37:57.769Z,9.70
2018-03-26T18:40:24.227Z,7.47
2018-03-26T18:42:50.709Z,8.53
2018-03-26T18:45:17.131Z,6.80
2018-03-26T18:47:43.552Z,6.77
2018-03-26T18:50:10.049Z,7.70
2018-03-26T18:52:36.485Z,7.70
2018-03-26T18:55:02.984Z,7.40
2018-03-26T18:57:29.571Z,9.17
2018-03-26T18:59:56.046Z,7.73
2018-03-26T19:02:22.502Z,7.73
2018-03-26T19:04:48.961Z,9.63
2018-03-26T19:07:15.449Z,8.87
2018-03-26T19:09:41.956Z,16.73
2018-03-26T19:12:08.435Z,12.13
2018-03-26T19:14:35.666Z,11.77
2018-03-26T19:17:02.124Z,9.97
2018-03-26T19:19:28.701Z,6.53
2018-03-26T19:21:55.147Z,6.27
2018-03-26T19:24:21.599Z,6.00
2018-03-26T19:26:48.050Z,6.50
2018-03-26T19:29:14.528Z,8.07
2018-03-26T19:31:40.989Z,8.53
2018-03-26T19:34:07.496Z,10.50
2018-03-26T19:36:34.662Z,15.07
2018-03-26T19:39:01.165Z,8.90
2018-03-26T19:41:28.349Z,13.27
2018-03-26T19:43:54.867Z,11.87
2018-03-26T19:46:22.036Z,23.77
2018-03-26T19:48:48.534Z,12.50
2018-03-26T19:51:14.987Z,15.17
2018-03-26T19:53:41.446Z,21.93
2018-03-26T19:56:07.886Z,10.83
2018-03-26T19:58:34.359Z,8.20
2018-03-26T20:01:00.777Z,8.90
2018-03-26T20:03:27.253Z,7.33
2018-03-26T20:05:54.435Z,7.47
2018-03-26T20:08:21.021Z,7.10
2018-03-26T20:10:48.218Z,7.10
2018-03-26T20:13:14.711Z,21.20
2018-03-26T20:15:41.173Z,13.47
2018-03-26T20:18:07.657Z,10.67
2018-03-26T20:20:34.129Z,15.40
2018-03-26T20:23:01.374Z,7.90
2018-03-26T20:25:29.333Z,12.33
2018-03-26T20:27:55.801Z,6.63
2018-03-26T20:30:22.300Z,6.73
2018-03-26T20:32:48.784Z,7.10
2018-03-26T20:35:15.242Z,6.13
2018-03-26T20:37:41.660Z,5.93
2018-03-26T20:40:08.146Z,6.67
2018-03-26T20:42:34.562Z,6.57
2018-03-26T20:45:00.989Z,5.87
2018-03-26T20:47:27.458Z,13.50
2018-03-26T20:49:54.671Z,8.63
2018-03-26T20:52:24.057Z,5.73
2018-03-26T20:54:50.516Z,8.17
2018-03-26T20:57:16.955Z,6.00
2018-03-26T20:59:43.424Z,5.73
2018-03-26T21:02:09.941Z,10.70
2018-03-26T21:04:36.477Z,16.90
2018-03-26T21:07:05.030Z,12.13
2018-03-26T21:09:31.566Z,9.33
2018-03-26T21:11:58.124Z,8.27
2018-03-26T21:14:24.682Z,8.90
2018-03-26T21:16:51.237Z,7.57
2018-03-26T21:19:18.538Z,13.57
2018-03-26T21:21:45.077Z,18.77
2018-03-26T21:24:11.625Z,13.87
2018-03-26T21:26:38.927Z,10.20
2018-03-26T21:29:05.502Z,17.07
2018-03-26T21:31:32.161Z,29.30
2018-03-26T21:33:59.453Z,33.37
2018-03-26T21:36:26.016Z,32.43
2018-03-26T21:38:52.550Z,37.63
2018-03-26T21:41:19.118Z,17.17
2018-03-26T21:43:45.645Z,12.77
2018-03-26T21:46:12.234Z,13.47
2018-03-26T21:48:39.546Z,24.33
2018-03-26T21:51:06.131Z,14.43
2018-03-26T21:53:33.404Z,16.47
2018-03-26T21:55:59.987Z,13.60
2018-03-26T21:58:26.505Z,8.17
2018-03-26T22:00:53.085Z,8.90
2018-03-26T22:03:20.371Z,8.83
2018-03-26T22:05:46.899Z,8.40
2018-03-26T22:08:13.757Z,12.33
2018-03-26T22:10:40.401Z,8.20
2018-03-26T22:13:06.965Z,9.37
2018-03-26T22:15:33.517Z,14.57
2018-03-26T22:18:00.781Z,9.33
2018-03-26T22:20:28.073Z,8.37
2018-03-26T22:22:54.630Z,9.87
2018-03-26T22:25:21.184Z,12.47
2018-03-26T22:27:47.710Z,14.00
2018-03-26T22:30:14.288Z,7.60
2018-03-26T22:32:41.561Z,26.70
2018-03-26T22:35:08.087Z,27.90
2018-03-26T22:37:34.633Z,26.90
2018-03-26T22:40:01.205Z,22.10
2018-03-26T22:42:27.726Z,19.33
2018-03-26T22:44:54.399Z,22.90
2018-03-26T22:47:20.907Z,28.80
2018-03-26T22:49:47.466Z,20.53
2018-03-26T22:52:13.971Z,26.30
2018-03-26T22:54:40.573Z,26.93
2018-03-26T22:57:07.834Z,29.33
2018-03-26T22:59:35.129Z,25.40
2018-03-26T23:02:01.651Z,24.50
2018-03-26T23:04:28.169Z,27.53
2018-03-26T23:06:55.447Z,25.90
2018-03-26T23:09:21.973Z,26.63
2018-03-26T23:11:48.538Z,25.10
2018-03-26T23:14:15.090Z,30.23
2018-03-26T23:16:41.613Z,23.83
2018-03-26T23:19:08.163Z,32.27
2018-03-26T23:21:34.684Z,21.17
2018-03-26T23:24:01.212Z,27.73
2018-03-26T23:26:27.722Z,30.70
2018-03-26T23:28:54.232Z,28.67
2018-03-26T23:31:20.806Z,29.87
2018-03-26T23:33:47.372Z,33.40
2018-03-26T23:39:11.144Z,23.10
2018-03-26T23:41:37.797Z,28.23
2018-03-26T23:44:05.895Z,29.83
2018-03-26T23:46:33.274Z,25.33
2018-03-26T23:48:59.923Z,29.87
2018-03-26T23:51:26.567Z,32.77
2018-03-26T23:53:53.207Z,32.07
2018-03-26T23:56:19.862Z,29.10
2018-03-26T23:58:46.495Z,32.17
